Terminal Aerodrome Forecast
Issued by NWS Blacksburg, VA

Current Version | Previous Version | Graphics & Text | Print | Product List | Glossary On
Versions: 1 2 3 4 5 6 7 8 9 10 11 12 13 14 15 16 17 18 19 20 21 22 23 24 25 26 27 28 29
092
FTUS41 KRNK 032328
TAFBLF
TAF
KBLF 032328Z 0400/0424 22010KT P6SM SCT030
     FM040600 29010G16KT P6SM SCT007 BKN012
     FM041300 29008KT 5SM -DZSN BR OVC005
     FM042000 31007KT P6SM OVC050=

USA.gov is the U.S. government's official web portal to all federal, state and local government web resources and services.